Lone Pine, CA

2:20 AM PST on December 28, 2014 (GMT -0800)
Fort Independence | Change Station
CLOSE
Current Station
Personal Weather Station
Location: Independence, CA
Elevation: 3980 ft
Nearby Weather Stations

Elev 3980 ft 36.83 °N, 118.22 °W | Updated 1 second ago

Clear
Clear
27.0 °F
Feels Like 27 °F
N
0.0
Wind Variable Wind from South
Gusts 0.0 mph

Today
High -- | Low -- °F
--% Chance of Precip.
Yesterday
High -- | Low -- °F
Precip. -- in
7:03 AM 4:44 PM
Waxing Crescent, 46% visible
Pressure 30.31 in
Visibility 10.0 miles
Clouds Clear
Windchill 27 °F
Dew Point 10 °F
Humidity 49%
Rainfall 0.00 in
Snow Depth Not available.
UV 0 out of 12
Pollen .90 out of 12
Air Quality Not available.
Flu Activity Not available.
METAR KBIH 280956Z AUTO 26006KT 10SM CLR M07/M15 A3028 RMK AO2 SLP264 T10721150

More Conditions Fewer Conditions

Pressure 30.31 in
Visibility 10.0 miles
Clouds Clear
Windchill 27 °F
Dew Point 10 °F
Humidity 49%
Rainfall 0.00 in
Snow Depth Not available.
UV 0 out of 12
Pollen .90 out of 12
Air Quality Not available.
Flu Activity Not available.
METAR KBIH 280956Z AUTO 26006KT 10SM CLR M07/M15 A3028 RMK AO2 SLP264 T10721150

More Conditions Fewer Conditions

10-Day Weather Forecast

Almanac

Astronomy

Dec. 28, 2014 Rise Set
Actual Time
Civil Twilight
Nautical Twilight
Astronomical Twilight
Moon
Length of Visible Light
Length of Day
Tomorrow will be .
, % of the Moon is Illuminated

Today's Extremes

State Highs State Lows

Community

WunderPhotos

Upload Photos

1,781,213 photos uploaded!

WunderBlogs® & News

Nearby

Air Quality

  Air Quality AQ Index Pollutant
Not available.

Snow Depth

Station Depth Elevation

Earthquake Activity

City Distance Mag. Time & Date
Minimum magnitude displayed is 2.5.

Coastal Water Temperatures

Place Temperature

Nearby Weather Stations